sensor_id;sensor_type;location;lat;lon;timestamp;pressure;altitude;pressure_sealevel;temperature;humidity
51287;BME280;37364;46.974;18.916;2023-07-24T00:01:58;155731.22;;;21.30;100.00
51287;BME280;37364;46.974;18.916;2023-07-24T00:04:30;155731.22;;;21.30;100.00
51287;BME280;37364;46.974;18.916;2023-07-24T00:07:03;155716.94;;;21.25;100.00
51287;BME280;37364;46.974;18.916;2023-07-24T00:09:33;155720.81;;;21.26;100.00
51287;BME280;37364;46.974;18.916;2023-07-24T00:12:04;155693.44;;;21.16;100.00
51287;BME280;37364;46.974;18.916;2023-07-24T00:14:35;155707.78;;;21.21;100.00
51287;BME280;37364;46.974;18.916;2023-07-24T00:17:05;155689.53;;;21.14;100.00
51287;BME280;37364;46.974;18.916;2023-07-24T00:19:35;155683.03;;;21.11;100.00
51287;BME280;37364;46.974;18.916;2023-07-24T00:22:08;155692.16;;;21.15;100.00
51287;BME280;37364;46.974;18.916;2023-07-24T00:24:38;155664.75;;;21.04;100.00
51287;BME280;37364;46.974;18.916;2023-07-24T00:27:09;155672.59;;;21.07;100.00
51287;BME280;37364;46.974;18.916;2023-07-24T00:29:39;155660.84;;;21.03;100.00
51287;BME280;37364;46.974;18.916;2023-07-24T00:32:09;155638.69;;;20.94;100.00
51287;BME280;37364;46.974;18.916;2023-07-24T00:34:39;155636.06;;;20.93;100.00
51287;BME280;37364;46.974;18.916;2023-07-24T00:37:12;155639.97;;;20.94;100.00
51287;BME280;37364;46.974;18.916;2023-07-24T00:39:46;155637.41;;;20.93;100.00
51287;BME280;37364;46.974;18.916;2023-07-24T00:42:17;155645.19;;;20.97;100.00
51287;BME280;37364;46.974;18.916;2023-07-24T00:44:47;155650.41;;;20.99;100.00
51287;BME280;37364;46.974;18.916;2023-07-24T00:47:18;155636.06;;;20.93;100.00
51287;BME280;37364;46.974;18.916;2023-07-24T00:49:48;155645.19;;;20.97;100.00
51287;BME280;37364;46.974;18.916;2023-07-24T00:52:21;155642.63;;;20.96;100.00
51287;BME280;37364;46.974;18.916;2023-07-24T00:54:52;155645.19;;;20.97;100.00
51287;BME280;37364;46.974;18.916;2023-07-24T00:57:23;155647.81;;;20.98;100.00
51287;BME280;37364;46.974;18.916;2023-07-24T00:59:54;155639.97;;;20.94;100.00
51287;BME280;37364;46.974;18.916;2023-07-24T01:02:25;155604.78;;;20.81;100.00
51287;BME280;37364;46.974;18.916;2023-07-24T01:04:56;155608.72;;;20.82;100.00
51287;BME280;37364;46.974;18.916;2023-07-24T01:07:29;155612.63;;;20.84;100.00
51287;BME280;37364;46.974;18.916;2023-07-24T01:10:03;155607.41;;;20.82;100.00
51287;BME280;37364;46.974;18.916;2023-07-24T01:12:36;155577.44;;;20.70;100.00
51287;BME280;37364;46.974;18.916;2023-07-24T01:15:14;155586.53;;;20.73;100.00
51287;BME280;37364;46.974;18.916;2023-07-24T01:17:52;155566.97;;;20.66;100.00
51287;BME280;37364;46.974;18.916;2023-07-24T01:20:26;155570.91;;;20.67;100.00
51287;BME280;37364;46.974;18.916;2023-07-24T01:23:14;155577.44;;;20.70;100.00
51287;BME280;37364;46.974;18.916;2023-07-24T01:25:57;155582.66;;;20.72;100.00
51287;BME280;37364;46.974;18.916;2023-07-24T01:28:29;155580.03;;;20.71;100.00
51287;BME280;37364;46.974;18.916;2023-07-24T01:30:59;155564.41;;;20.65;100.00
51287;BME280;37364;46.974;18.916;2023-07-24T01:33:30;155557.91;;;20.62;100.00
51287;BME280;37364;46.974;18.916;2023-07-24T01:36:03;155556.56;;;20.62;100.00
51287;BME280;37364;46.974;18.916;2023-07-24T01:38:34;155553.97;;;20.61;100.00
51287;BME280;37364;46.974;18.916;2023-07-24T01:41:08;155563.09;;;20.64;100.00
51287;BME280;37364;46.974;18.916;2023-07-24T01:43:38;155553.97;;;20.61;100.00
51287;BME280;37364;46.974;18.916;2023-07-24T01:46:08;155546.09;;;20.58;100.00
51287;BME280;37364;46.974;18.916;2023-07-24T01:48:38;155531.75;;;20.52;100.00
51287;BME280;37364;46.974;18.916;2023-07-24T01:51:09;155518.75;;;20.47;100.00
51287;BME280;37364;46.974;18.916;2023-07-24T01:53:39;155505.69;;;20.42;100.00
51287;BME280;37364;46.974;18.916;2023-07-24T01:56:11;155497.91;;;20.39;100.00
51287;BME280;37364;46.974;18.916;2023-07-24T01:58:42;155508.31;;;20.43;100.00
51287;BME280;37364;46.974;18.916;2023-07-24T02:01:12;155503.09;;;20.41;100.00
51287;BME280;37364;46.974;18.916;2023-07-24T02:03:42;155500.47;;;20.40;100.00
51287;BME280;37364;46.974;18.916;2023-07-24T02:06:12;155504.41;;;20.41;100.00
51287;BME280;37364;46.974;18.916;2023-07-24T02:08:43;155501.78;;;20.40;100.00
51287;BME280;37364;46.974;18.916;2023-07-24T02:11:18;155514.81;;;20.45;100.00
51287;BME280;37364;46.974;18.916;2023-07-24T02:13:48;155506.97;;;20.42;100.00
51287;BME280;37364;46.974;18.916;2023-07-24T02:16:19;155516.09;;;20.46;100.00
51287;BME280;37364;46.974;18.916;2023-07-24T02:18:49;155495.28;;;20.38;100.00
51287;BME280;37364;46.974;18.916;2023-07-24T02:21:19;155497.91;;;20.39;100.00
51287;BME280;37364;46.974;18.916;2023-07-24T02:23:50;155512.19;;;20.44;100.00
51287;BME280;37364;46.974;18.916;2023-07-24T02:26:22;155512.19;;;20.44;100.00
51287;BME280;37364;46.974;18.916;2023-07-24T02:28:54;155514.81;;;20.45;100.00
51287;BME280;37364;46.974;18.916;2023-07-24T02:31:24;155509.59;;;20.43;100.00
51287;BME280;37364;46.974;18.916;2023-07-24T02:33:56;155506.97;;;20.42;100.00
51287;BME280;37364;46.974;18.916;2023-07-24T02:36:26;155520.03;;;20.47;100.00
51287;BME280;37364;46.974;18.916;2023-07-24T02:38:57;155523.94;;;20.49;100.00
51287;BME280;37364;46.974;18.916;2023-07-24T02:41:29;155513.53;;;20.45;100.00
51287;BME280;37364;46.974;18.916;2023-07-24T02:43:59;155527.88;;;20.50;100.00
51287;BME280;37364;46.974;18.916;2023-07-24T02:46:30;155531.75;;;20.52;100.00
51287;BME280;37364;46.974;18.916;2023-07-24T02:49:00;155523.94;;;20.49;100.00
51287;BME280;37364;46.974;18.916;2023-07-24T02:51:30;155546.09;;;20.58;100.00
51287;BME280;37364;46.974;18.916;2023-07-24T02:54:00;155525.25;;;20.49;100.00
51287;BME280;37364;46.974;18.916;2023-07-24T02:56:33;155535.66;;;20.53;100.00
51287;BME280;37364;46.974;18.916;2023-07-24T02:59:03;155533.09;;;20.52;100.00
51287;BME280;37364;46.974;18.916;2023-07-24T03:01:33;155547.41;;;20.58;100.00
51287;BME280;37364;46.974;18.916;2023-07-24T03:04:04;155548.72;;;20.59;100.00
51287;BME280;37364;46.974;18.916;2023-07-24T03:06:35;155540.88;;;20.55;100.00
51287;BME280;37364;46.974;18.916;2023-07-24T03:09:05;155546.09;;;20.58;100.00
51287;BME280;37364;46.974;18.916;2023-07-24T03:11:38;155543.50;;;20.57;100.00
51287;BME280;37364;46.974;18.916;2023-07-24T03:14:08;155540.88;;;20.55;100.00
51287;BME280;37364;46.974;18.916;2023-07-24T03:16:38;155533.09;;;20.52;100.00
51287;BME280;37364;46.974;18.916;2023-07-24T03:19:09;155538.28;;;20.54;100.00
51287;BME280;37364;46.974;18.916;2023-07-24T03:21:39;155543.50;;;20.57;100.00
51287;BME280;37364;46.974;18.916;2023-07-24T03:24:09;155552.69;;;20.60;100.00
51287;BME280;37364;46.974;18.916;2023-07-24T03:26:42;155552.69;;;20.60;100.00
51287;BME280;37364;46.974;18.916;2023-07-24T03:29:12;155551.34;;;20.60;100.00
51287;BME280;37364;46.974;18.916;2023-07-24T03:31:42;155533.09;;;20.52;100.00
51287;BME280;37364;46.974;18.916;2023-07-24T03:34:12;155533.09;;;20.52;100.00
51287;BME280;37364;46.974;18.916;2023-07-24T03:36:43;155548.72;;;20.59;100.00
51287;BME280;37364;46.974;18.916;2023-07-24T03:39:13;155544.78;;;20.57;100.00
51287;BME280;37364;46.974;18.916;2023-07-24T03:41:46;155542.16;;;20.56;100.00
51287;BME280;37364;46.974;18.916;2023-07-24T03:44:16;155534.38;;;20.53;100.00
51287;BME280;37364;46.974;18.916;2023-07-24T03:46:46;155526.53;;;20.50;100.00
51287;BME280;37364;46.974;18.916;2023-07-24T03:49:16;155522.66;;;20.48;100.00
51287;BME280;37364;46.974;18.916;2023-07-24T03:51:46;155514.81;;;20.45;100.00
51287;BME280;37364;46.974;18.916;2023-07-24T03:54:17;155520.03;;;20.47;100.00
51287;BME280;37364;46.974;18.916;2023-07-24T03:56:49;155508.31;;;20.43;100.00
51287;BME280;37364;46.974;18.916;2023-07-24T03:59:19;155514.81;;;20.45;100.00
51287;BME280;37364;46.974;18.916;2023-07-24T04:01:50;155500.47;;;20.40;100.00
51287;BME280;37364;46.974;18.916;2023-07-24T04:04:20;155510.91;;;20.44;100.00
51287;BME280;37364;46.974;18.916;2023-07-24T04:06:50;155531.75;;;20.52;100.00
51287;BME280;37364;46.974;18.916;2023-07-24T04:09:20;155539.59;;;20.55;100.00
51287;BME280;37364;46.974;18.916;2023-07-24T04:11:53;155544.78;;;20.57;100.00
51287;BME280;37364;46.974;18.916;2023-07-24T04:14:23;155548.72;;;20.59;100.00
51287;BME280;37364;46.974;18.916;2023-07-24T04:16:53;155555.25;;;20.61;100.00
51287;BME280;37364;46.974;18.916;2023-07-24T04:19:23;155576.09;;;20.69;100.00
51287;BME280;37364;46.974;18.916;2023-07-24T04:21:54;155585.25;;;20.73;100.00
51287;BME280;37364;46.974;18.916;2023-07-24T04:24:25;155608.72;;;20.82;100.00
51287;BME280;37364;46.974;18.916;2023-07-24T04:26:58;155632.19;;;20.91;100.00
51287;BME280;37364;46.974;18.916;2023-07-24T04:29:28;155655.63;;;21.01;100.00
51287;BME280;37364;46.974;18.916;2023-07-24T04:31:58;155676.47;;;21.09;100.00
51287;BME280;37364;46.974;18.916;2023-07-24T04:34:28;155716.94;;;21.25;100.00
51287;BME280;37364;46.974;18.916;2023-07-24T04:37:00;155744.28;;;21.36;100.00
51287;BME280;37364;46.974;18.916;2023-07-24T04:39:31;155758.63;;;21.41;100.00
51287;BME280;37364;46.974;18.916;2023-07-24T04:42:04;155787.38;;;21.52;100.00
51287;BME280;37364;46.974;18.916;2023-07-24T04:44:34;155840.81;;;21.73;100.00
51287;BME280;37364;46.974;18.916;2023-07-24T04:47:05;155885.16;;;21.91;100.00
51287;BME280;37364;46.974;18.916;2023-07-24T04:49:35;155920.38;;;22.05;100.00
51287;BME280;37364;46.974;18.916;2023-07-24T04:52:05;155968.66;;;22.24;100.00
51287;BME280;37364;46.974;18.916;2023-07-24T04:54:36;155967.38;;;22.23;100.00
51287;BME280;37364;46.974;18.916;2023-07-24T04:57:08;156000.00;;;22.36;100.00
51287;BME280;37364;46.974;18.916;2023-07-24T04:59:39;156032.66;;;22.49;100.00
51287;BME280;37364;46.974;18.916;2023-07-24T05:02:10;156084.81;;;22.69;100.00
51287;BME280;37364;46.974;18.916;2023-07-24T05:04:40;156120.03;;;22.83;100.00
51287;BME280;37364;46.974;18.916;2023-07-24T05:07:11;156168.41;;;23.02;100.00
51287;BME280;37364;46.974;18.916;2023-07-24T05:09:41;156218.00;;;23.22;100.00
51287;BME280;37364;46.974;18.916;2023-07-24T05:12:14;156246.72;;;23.33;100.00
51287;BME280;37364;46.974;18.916;2023-07-24T05:14:44;156268.91;;;23.42;100.00
51287;BME280;37364;46.974;18.916;2023-07-24T05:17:14;156313.28;;;23.59;100.00
51287;BME280;37364;46.974;18.916;2023-07-24T05:19:45;156272.81;;;23.43;100.00
51287;BME280;37364;46.974;18.916;2023-07-24T05:22:15;156355.09;;;23.76;100.00
51287;BME280;37364;46.974;18.916;2023-07-24T05:24:45;156347.25;;;23.73;100.00
51287;BME280;37364;46.974;18.916;2023-07-24T05:27:18;156420.44;;;24.01;100.00
51287;BME280;37364;46.974;18.916;2023-07-24T05:29:48;156460.91;;;24.17;100.00
51287;BME280;37364;46.974;18.916;2023-07-24T05:32:18;156441.31;;;24.10;100.00
51287;BME280;37364;46.974;18.916;2023-07-24T05:34:48;156404.72;;;23.95;100.00
51287;BME280;37364;46.974;18.916;2023-07-24T05:37:19;156477.88;;;24.24;100.00
51287;BME280;37364;46.974;18.916;2023-07-24T05:39:49;156535.38;;;24.46;100.00
51287;BME280;37364;46.974;18.916;2023-07-24T05:42:21;156560.25;;;24.56;100.00
51287;BME280;37364;46.974;18.916;2023-07-24T05:44:52;156585.06;;;24.66;100.00
51287;BME280;37364;46.974;18.916;2023-07-24T05:47:22;156662.13;;;24.96;100.00
51287;BME280;37364;46.974;18.916;2023-07-24T05:49:52;156658.19;;;24.95;100.00
51287;BME280;37364;46.974;18.916;2023-07-24T05:52:22;156694.81;;;25.09;100.00
51287;BME280;37364;46.974;18.916;2023-07-24T05:54:52;156711.78;;;25.16;100.00
51287;BME280;37364;46.974;18.916;2023-07-24T05:57:25;156788.91;;;25.46;100.00
51287;BME280;37364;46.974;18.916;2023-07-24T05:59:55;156804.63;;;25.52;100.00
51287;BME280;37364;46.974;18.916;2023-07-24T06:02:26;156872.56;;;25.79;100.00
51287;BME280;37364;46.974;18.916;2023-07-24T06:04:56;156858.19;;;25.73;100.00
51287;BME280;37364;46.974;18.916;2023-07-24T06:07:26;156881.72;;;25.82;100.00
51287;BME280;37364;46.974;18.916;2023-07-24T06:09:57;156927.53;;;26.00;100.00
51287;BME280;37364;46.974;18.916;2023-07-24T06:12:29;156896.13;;;25.88;100.00
51287;BME280;37364;46.974;18.916;2023-07-24T06:14:59;156901.34;;;25.90;100.00
51287;BME280;37364;46.974;18.916;2023-07-24T06:17:30;156964.13;;;26.15;100.00
51287;BME280;37364;46.974;18.916;2023-07-24T06:20:01;157008.56;;;26.32;100.00
51287;BME280;37364;46.974;18.916;2023-07-24T06:22:31;157038.66;;;26.44;100.00
51287;BME280;37364;46.974;18.916;2023-07-24T06:25:01;157011.22;;;26.33;100.00
51287;BME280;37364;46.974;18.916;2023-07-24T06:27:34;157126.34;;;26.78;100.00
51287;BME280;37364;46.974;18.916;2023-07-24T06:30:06;157093.63;;;26.66;100.00
51287;BME280;37364;46.974;18.916;2023-07-24T06:32:42;157202.19;;;27.08;100.00
51287;BME280;37364;46.974;18.916;2023-07-24T06:35:12;157251.97;;;27.28;100.00
51287;BME280;37364;46.974;18.916;2023-07-24T06:37:42;157284.69;;;27.40;100.00
51287;BME280;37364;46.974;18.916;2023-07-24T06:40:13;157285.97;;;27.41;100.00
51287;BME280;37364;46.974;18.916;2023-07-24T06:42:46;157326.53;;;27.57;100.00
51287;BME280;37364;46.974;18.916;2023-07-24T06:45:16;157399.84;;;27.86;100.00
51287;BME280;37364;46.974;18.916;2023-07-24T06:47:46;157437.81;;;28.00;100.00
51287;BME280;37364;46.974;18.916;2023-07-24T06:50:16;157466.59;;;28.12;100.00
51287;BME280;37364;46.974;18.916;2023-07-24T06:52:46;157473.13;;;28.14;100.00
51287;BME280;37364;46.974;18.916;2023-07-24T06:55:19;157517.63;;;28.32;100.00
51287;BME280;37364;46.974;18.916;2023-07-24T06:57:51;157545.16;;;28.43;100.00
51287;BME280;37364;46.974;18.916;2023-07-24T07:00:22;157359.28;;;27.70;100.00
51287;BME280;37364;46.974;18.916;2023-07-24T07:02:52;157450.91;;;28.06;100.00
51287;BME280;37364;46.974;18.916;2023-07-24T07:05:22;157520.28;;;28.33;100.00
51287;BME280;37364;46.974;18.916;2023-07-24T07:07:53;157513.72;;;28.30;100.00
51287;BME280;37364;46.974;18.916;2023-07-24T07:10:23;157521.56;;;28.33;100.00
51287;BME280;37364;46.974;18.916;2023-07-24T07:12:55;157622.44;;;28.73;100.00
51287;BME280;37364;46.974;18.916;2023-07-24T07:15:26;157672.19;;;28.92;100.00
51287;BME280;37364;46.974;18.916;2023-07-24T07:17:56;157580.56;;;28.56;100.00
51287;BME280;37364;46.974;18.916;2023-07-24T07:20:27;157573.97;;;28.54;100.00
51287;BME280;37364;46.974;18.916;2023-07-24T07:22:57;157710.16;;;29.07;100.00
51287;BME280;37364;46.974;18.916;2023-07-24T07:25:27;157740.34;;;29.19;100.00
51287;BME280;37364;46.974;18.916;2023-07-24T07:28:00;157749.50;;;29.23;100.00
51287;BME280;37364;46.974;18.916;2023-07-24T07:30:30;157817.59;;;29.49;100.00
51287;BME280;37364;46.974;18.916;2023-07-24T07:33:00;157838.53;;;29.57;100.00
51287;BME280;37364;46.974;18.916;2023-07-24T07:35:33;157851.66;;;29.63;100.00
51287;BME280;37364;46.974;18.916;2023-07-24T07:38:03;157825.47;;;29.52;100.00
51287;BME280;37364;46.974;18.916;2023-07-24T07:40:33;157842.47;;;29.59;100.00
51287;BME280;37364;46.974;18.916;2023-07-24T07:43:09;157842.47;;;29.59;100.00
51287;BME280;37364;46.974;18.916;2023-07-24T07:45:39;157760.00;;;29.27;100.00
51287;BME280;37364;46.974;18.916;2023-07-24T07:48:09;157817.59;;;29.49;100.00
51287;BME280;37364;46.974;18.916;2023-07-24T07:50:39;157927.66;;;29.92;100.00
51287;BME280;37364;46.974;18.916;2023-07-24T07:53:10;157947.31;;;30.00;100.00
51287;BME280;37364;46.974;18.916;2023-07-24T07:55:40;157964.34;;;30.07;100.00
51287;BME280;37364;46.974;18.916;2023-07-24T07:58:12;158052.19;;;30.41;100.00
51287;BME280;37364;46.974;18.916;2023-07-24T08:00:43;158043.00;;;30.38;100.00
51287;BME280;37364;46.974;18.916;2023-07-24T08:03:13;158132.13;;;30.72;100.00
51287;BME280;37364;46.974;18.916;2023-07-24T08:05:43;158092.81;;;30.57;100.00
51287;BME280;37364;46.974;18.916;2023-07-24T08:08:13;158002.34;;;30.22;100.00
51287;BME280;37364;46.974;18.916;2023-07-24T08:10:44;158065.31;;;30.46;100.00
51287;BME280;37364;46.974;18.916;2023-07-24T08:13:16;158159.63;;;30.83;100.00
51287;BME280;37364;46.974;18.916;2023-07-24T08:15:46;158208.19;;;31.02;100.00
51287;BME280;37364;46.974;18.916;2023-07-24T08:18:16;158160.97;;;30.84;100.00
51287;BME280;37364;46.974;18.916;2023-07-24T08:20:47;158199.00;;;30.99;100.00
51287;BME280;37364;46.974;18.916;2023-07-24T08:23:17;158221.31;;;31.07;100.00
51287;BME280;37364;46.974;18.916;2023-07-24T08:25:56;158202.94;;;31.00;100.00
51287;BME280;37364;46.974;18.916;2023-07-24T08:28:29;158268.47;;;31.26;100.00
51287;BME280;37364;46.974;18.916;2023-07-24T08:30:58;158286.84;;;31.33;100.00
51287;BME280;37364;46.974;18.916;2023-07-24T08:33:33;158398.31;;;31.77;100.00
51287;BME280;37364;46.974;18.916;2023-07-24T08:36:04;158263.25;;;31.24;95.68
51287;BME280;37364;46.974;18.916;2023-07-24T08:38:35;158282.91;;;31.31;97.69
51287;BME280;37364;46.974;18.916;2023-07-24T08:41:07;158344.56;;;31.56;99.78
51287;BME280;37364;46.974;18.916;2023-07-24T08:43:42;158314.34;;;31.44;97.41
51287;BME280;37364;46.974;18.916;2023-07-24T08:46:12;158353.75;;;31.59;98.42
51287;BME280;37364;46.974;18.916;2023-07-24T08:48:43;158361.63;;;31.62;95.96
51287;BME280;37364;46.974;18.916;2023-07-24T08:51:14;158414.06;;;31.83;96.38
51287;BME280;37364;46.974;18.916;2023-07-24T08:53:46;158424.53;;;31.87;92.83
51287;BME280;37364;46.974;18.916;2023-07-24T08:56:17;158349.78;;;31.58;95.21
51287;BME280;37364;46.974;18.916;2023-07-24T08:58:49;158402.28;;;31.78;92.70
51287;BME280;37364;46.974;18.916;2023-07-24T09:01:21;158366.88;;;31.64;91.35
51287;BME280;37364;46.974;18.916;2023-07-24T09:03:56;158442.91;;;31.94;92.24
51287;BME280;37364;46.974;18.916;2023-07-24T09:06:26;158466.59;;;32.03;91.60
51287;BME280;37364;46.974;18.916;2023-07-24T09:08:57;158524.25;;;32.26;92.81
51287;BME280;37364;46.974;18.916;2023-07-24T09:11:27;158526.91;;;32.27;90.99
51287;BME280;37364;46.974;18.916;2023-07-24T09:14:00;158408.81;;;31.81;87.54
51287;BME280;37364;46.974;18.916;2023-07-24T09:16:39;158460.00;;;32.01;85.97
51287;BME280;37364;46.974;18.916;2023-07-24T09:19:17;158466.59;;;32.03;88.09
51287;BME280;37364;46.974;18.916;2023-07-24T09:21:52;158546.59;;;32.35;86.76
51287;BME280;37364;46.974;18.916;2023-07-24T09:24:22;158507.22;;;32.19;89.97
51287;BME280;37364;46.974;18.916;2023-07-24T09:26:53;158576.75;;;32.46;86.23
51287;BME280;37364;46.974;18.916;2023-07-24T09:29:33;158624.00;;;32.65;83.57
51287;BME280;37364;46.974;18.916;2023-07-24T09:32:04;158639.72;;;32.71;82.22
51287;BME280;37364;46.974;18.916;2023-07-24T09:34:41;158638.44;;;32.70;80.43
51287;BME280;37364;46.974;18.916;2023-07-24T09:37:23;158681.75;;;32.87;86.36
51287;BME280;37364;46.974;18.916;2023-07-24T09:39:53;158627.94;;;32.66;84.83
51287;BME280;37364;46.974;18.916;2023-07-24T09:42:30;158648.91;;;32.75;85.04
51287;BME280;37364;46.974;18.916;2023-07-24T09:45:04;158651.56;;;32.76;82.36
51287;BME280;37364;46.974;18.916;2023-07-24T09:47:35;158592.47;;;32.53;82.62
51287;BME280;37364;46.974;18.916;2023-07-24T09:50:09;158593.78;;;32.53;86.92
51287;BME280;37364;46.974;18.916;2023-07-24T09:52:43;158706.66;;;32.97;84.32
51287;BME280;37364;46.974;18.916;2023-07-24T09:55:19;158707.97;;;32.98;89.25
51287;BME280;37364;46.974;18.916;2023-07-24T09:57:53;158588.53;;;32.51;83.25
51287;BME280;37364;46.974;18.916;2023-07-24T10:00:27;158664.66;;;32.81;84.81
51287;BME280;37364;46.974;18.916;2023-07-24T10:02:58;158692.22;;;32.92;84.09
51287;BME280;37364;46.974;18.916;2023-07-24T10:05:29;158669.91;;;32.83;83.86
51287;BME280;37364;46.974;18.916;2023-07-24T10:07:59;158688.28;;;32.90;86.25
51287;BME280;37364;46.974;18.916;2023-07-24T10:10:30;158778.88;;;33.25;89.02
51287;BME280;37364;46.974;18.916;2023-07-24T10:13:00;158789.34;;;33.29;84.53
51287;BME280;37364;46.974;18.916;2023-07-24T10:15:34;158759.19;;;33.18;89.82
51287;BME280;37364;46.974;18.916;2023-07-24T10:18:07;158809.03;;;33.37;89.65
51287;BME280;37364;46.974;18.916;2023-07-24T10:20:39;158864.16;;;33.59;86.08
51287;BME280;37364;46.974;18.916;2023-07-24T10:23:11;158861.50;;;33.58;84.71
51287;BME280;37364;46.974;18.916;2023-07-24T10:25:49;158929.81;;;33.84;82.31
51287;BME280;37364;46.974;18.916;2023-07-24T10:28:30;158915.38;;;33.79;85.19
51287;BME280;37364;46.974;18.916;2023-07-24T10:31:08;158872.06;;;33.62;82.39
51287;BME280;37364;46.974;18.916;2023-07-24T10:33:44;158929.81;;;33.84;80.41
51287;BME280;37364;46.974;18.916;2023-07-24T10:36:17;159020.44;;;34.20;83.79
51287;BME280;37364;46.974;18.916;2023-07-24T10:38:53;159062.44;;;34.36;83.86
51287;BME280;37364;46.974;18.916;2023-07-24T10:41:34;158979.69;;;34.04;86.26
51287;BME280;37364;46.974;18.916;2023-07-24T10:44:05;159011.25;;;34.16;84.02
51287;BME280;37364;46.974;18.916;2023-07-24T10:46:39;158974.44;;;34.02;83.07
51287;BME280;37364;46.974;18.916;2023-07-24T10:49:09;159016.47;;;34.18;84.34
51287;BME280;37364;46.974;18.916;2023-07-24T10:51:40;158949.50;;;33.92;81.22
51287;BME280;37364;46.974;18.916;2023-07-24T10:54:10;158975.75;;;34.02;83.82
51287;BME280;37364;46.974;18.916;2023-07-24T10:56:40;158832.69;;;33.46;87.27
51287;BME280;37364;46.974;18.916;2023-07-24T10:59:10;158849.72;;;33.53;85.37
51287;BME280;37364;46.974;18.916;2023-07-24T11:01:44;158858.91;;;33.57;83.56
51287;BME280;37364;46.974;18.916;2023-07-24T11:04:14;158914.06;;;33.78;80.75
51287;BME280;37364;46.974;18.916;2023-07-24T11:06:45;158864.16;;;33.59;80.89
51287;BME280;37364;46.974;18.916;2023-07-24T11:09:34;158950.81;;;33.93;86.31
51287;BME280;37364;46.974;18.916;2023-07-24T11:12:12;158963.94;;;33.98;87.64
51287;BME280;37364;46.974;18.916;2023-07-24T11:14:48;159069.03;;;34.39;83.80
51287;BME280;37364;46.974;18.916;2023-07-24T11:17:21;159040.13;;;34.27;81.84
51287;BME280;37364;46.974;18.916;2023-07-24T11:19:51;159040.13;;;34.27;84.26
51287;BME280;37364;46.974;18.916;2023-07-24T11:22:22;158977.06;;;34.03;79.83
51287;BME280;37364;46.974;18.916;2023-07-24T11:24:57;159033.56;;;34.25;79.41
51287;BME280;37364;46.974;18.916;2023-07-24T11:27:28;158882.59;;;33.66;79.87
51287;BME280;37364;46.974;18.916;2023-07-24T11:29:58;158999.38;;;34.12;81.46
51287;BME280;37364;46.974;18.916;2023-07-24T11:32:31;158894.38;;;33.71;80.28
51287;BME280;37364;46.974;18.916;2023-07-24T11:35:02;158914.06;;;33.78;83.51
51287;BME280;37364;46.974;18.916;2023-07-24T11:37:33;159007.34;;;34.15;80.30
51287;BME280;37364;46.974;18.916;2023-07-24T11:40:05;159013.88;;;34.17;78.27
51287;BME280;37364;46.974;18.916;2023-07-24T11:42:43;159078.22;;;34.42;77.10
51287;BME280;37364;46.974;18.916;2023-07-24T11:45:14;159033.56;;;34.25;82.28
51287;BME280;37364;46.974;18.916;2023-07-24T11:47:49;159054.56;;;34.33;79.06
51287;BME280;37364;46.974;18.916;2023-07-24T11:50:21;158903.59;;;33.74;79.42
51287;BME280;37364;46.974;18.916;2023-07-24T11:52:52;158984.94;;;34.06;81.70
51287;BME280;37364;46.974;18.916;2023-07-24T11:55:30;159061.13;;;34.36;79.37
51287;BME280;37364;46.974;18.916;2023-07-24T11:58:01;159053.28;;;34.33;77.55
51287;BME280;37364;46.974;18.916;2023-07-24T12:00:33;159016.47;;;34.18;78.49
51287;BME280;37364;46.974;18.916;2023-07-24T12:03:08;159034.88;;;34.25;78.98
51287;BME280;37364;46.974;18.916;2023-07-24T12:05:39;159069.03;;;34.39;76.88
51287;BME280;37364;46.974;18.916;2023-07-24T12:08:10;159012.59;;;34.17;78.00
51287;BME280;37364;46.974;18.916;2023-07-24T12:10:41;159126.75;;;34.61;76.33
51287;BME280;37364;46.974;18.916;2023-07-24T12:13:12;159142.56;;;34.67;75.63
51287;BME280;37364;46.974;18.916;2023-07-24T12:15:47;159113.66;;;34.56;76.56
51287;BME280;37364;46.974;18.916;2023-07-24T12:18:21;159105.75;;;34.53;73.31
51287;BME280;37364;46.974;18.916;2023-07-24T12:20:51;159108.41;;;34.54;69.01
51287;BME280;37364;46.974;18.916;2023-07-24T12:23:21;159126.75;;;34.61;68.29
51287;BME280;37364;46.974;18.916;2023-07-24T12:25:52;159224.00;;;34.99;71.27
51287;BME280;37364;46.974;18.916;2023-07-24T12:28:22;159192.47;;;34.87;72.20
51287;BME280;37364;46.974;18.916;2023-07-24T12:30:52;159159.66;;;34.74;73.19
51287;BME280;37364;46.974;18.916;2023-07-24T12:33:25;159128.13;;;34.62;71.09
51287;BME280;37364;46.974;18.916;2023-07-24T12:35:55;159074.28;;;34.41;74.60
51287;BME280;37364;46.974;18.916;2023-07-24T12:38:26;159138.66;;;34.66;75.81
51287;BME280;37364;46.974;18.916;2023-07-24T12:40:56;159159.66;;;34.74;70.60
51287;BME280;37364;46.974;18.916;2023-07-24T12:43:27;159155.72;;;34.73;71.13
51287;BME280;37364;46.974;18.916;2023-07-24T12:45:57;159176.72;;;34.81;72.02
51287;BME280;37364;46.974;18.916;2023-07-24T12:48:30;159213.50;;;34.95;68.73
51287;BME280;37364;46.974;18.916;2023-07-24T12:51:01;159155.72;;;34.73;69.51
51287;BME280;37364;46.974;18.916;2023-07-24T12:53:31;159130.72;;;34.63;63.39
51287;BME280;37364;46.974;18.916;2023-07-24T12:56:10;159120.22;;;34.59;65.21